createdAt,value
2023-03-06T00:00:06.146Z,10.30
2023-03-06T00:00:16.898Z,10.40
2023-03-06T00:00:29.136Z,10.90
2023-03-06T00:00:41.608Z,11.60
2023-03-06T00:00:53.347Z,11.30
2023-03-06T00:01:04.142Z,11.40
2023-03-06T00:01:15.880Z,11.00
2023-03-06T00:01:26.638Z,10.80
2023-03-06T00:01:37.428Z,11.40
2023-03-06T00:01:49.146Z,11.20
2023-03-06T00:01:59.908Z,10.60
2023-03-06T00:02:11.657Z,10.50
2023-03-06T00:02:24.858Z,10.70
2023-03-06T00:02:35.668Z,10.10
2023-03-06T00:02:46.442Z,10.30
2023-03-06T00:02:58.664Z,10.30
2023-03-06T00:03:09.439Z,10.20
2023-03-06T00:03:21.915Z,10.40
2023-03-06T00:03:36.157Z,10.60
2023-03-06T00:03:48.701Z,10.30
2023-03-06T00:03:59.488Z,10.30
2023-03-06T00:04:10.264Z,10.60
2023-03-06T00:04:22.529Z,10.90
2023-03-06T00:04:34.246Z,10.80
2023-03-06T00:04:44.988Z,10.80
2023-03-06T00:04:58.201Z,10.60
2023-03-06T00:05:09.980Z,10.10
2023-03-06T00:05:21.732Z,10.60
2023-03-06T00:05:34.955Z,10.90
2023-03-06T00:05:47.103Z,10.20
2023-03-06T00:06:00.380Z,9.50
2023-03-06T00:06:12.937Z,9.40
2023-03-06T00:06:25.395Z,9.10
2023-03-06T00:06:38.107Z,10.50
2023-03-06T00:06:48.830Z,10.60
2023-03-06T00:07:01.028Z,10.90
2023-03-06T00:07:13.285Z,10.60
2023-03-06T00:07:24.136Z,11.00
2023-03-06T00:07:36.884Z,10.80
2023-03-06T00:07:47.646Z,11.00
2023-03-06T00:07:59.363Z,11.20
2023-03-06T00:08:10.131Z,11.20
2023-03-06T00:08:20.890Z,11.30
2023-03-06T00:08:32.650Z,10.90
2023-03-06T00:08:43.381Z,10.60
2023-03-06T00:08:55.823Z,10.80
2023-03-06T00:09:08.040Z,11.10
2023-03-06T00:09:19.772Z,11.10
2023-03-06T00:09:32.200Z,10.60
2023-03-06T00:09:43.965Z,10.20
2023-03-06T00:09:56.391Z,11.10
2023-03-06T00:10:08.844Z,11.30
2023-03-06T00:10:20.800Z,10.30
2023-03-06T00:10:33.803Z,10.60
2023-03-06T00:10:45.543Z,11.20
2023-03-06T00:10:57.320Z,11.10
2023-03-06T00:11:09.540Z,10.40
2023-03-06T00:11:21.292Z,10.40
2023-03-06T00:11:33.035Z,10.40
2023-03-06T00:11:44.755Z,11.00
2023-03-06T00:11:56.534Z,11.40
2023-03-06T00:12:08.741Z,11.20
2023-03-06T00:12:21.225Z,10.60
2023-03-06T00:12:32.934Z,10.50
2023-03-06T00:12:45.165Z,10.40
2023-03-06T00:12:57.622Z,10.80
2023-03-06T00:13:10.065Z,10.90
2023-03-06T00:13:20.814Z,10.50
2023-03-06T00:13:33.256Z,10.90
2023-03-06T00:13:44.034Z,10.70
2023-03-06T00:13:57.237Z,10.10
2023-03-06T00:14:09.950Z,10.10
2023-03-06T00:14:21.653Z,10.00
2023-03-06T00:14:34.576Z,10.50
2023-03-06T00:14:46.291Z,10.50
2023-03-06T00:14:57.064Z,10.60
2023-03-06T00:15:07.828Z,10.60
2023-03-06T00:15:19.561Z,10.50
2023-03-06T00:15:31.285Z,10.20
2023-03-06T00:15:42.069Z,10.30
2023-03-06T00:15:53.884Z,11.30
2023-03-06T00:16:04.729Z,10.20
2023-03-06T00:16:17.729Z,9.10
2023-03-06T00:16:29.480Z,9.20
2023-03-06T00:16:41.370Z,10.30
2023-03-06T00:16:53.806Z,10.40
2023-03-06T00:17:06.247Z,10.70
2023-03-06T00:17:17.015Z,10.40
2023-03-06T00:17:29.476Z,10.40
2023-03-06T00:17:41.930Z,10.00
2023-03-06T00:17:54.377Z,10.10
2023-03-06T00:18:05.324Z,9.90
2023-03-06T00:18:16.104Z,9.80
2023-03-06T00:18:28.556Z,9.90
2023-03-06T00:18:39.404Z,9.90
2023-03-06T00:18:50.190Z,10.10
2023-03-06T00:19:02.644Z,10.50
2023-03-06T00:19:14.393Z,10.30
2023-03-06T00:19:26.168Z,10.90
2023-03-06T00:19:37.976Z,11.30
2023-03-06T00:19:49.715Z,11.00
2023-03-06T00:20:02.666Z,11.00
2023-03-06T00:20:16.378Z,10.60
2023-03-06T00:20:28.875Z,10.30
2023-03-06T00:20:39.896Z,10.70
2023-03-06T00:20:52.877Z,10.40
2023-03-06T00:21:03.621Z,10.30
2023-03-06T00:21:15.817Z,10.00
2023-03-06T00:21:27.625Z,10.70
2023-03-06T00:21:39.413Z,10.30
2023-03-06T00:21:51.883Z,10.10
2023-03-06T00:22:05.101Z,10.20
2023-03-06T00:22:15.874Z,10.30
2023-03-06T00:22:26.670Z,9.90
2023-03-06T00:23:15.884Z,0.00
2023-03-06T00:23:28.327Z,10.50
2023-03-06T00:23:40.065Z,10.80
2023-03-06T00:23:50.843Z,10.80
2023-03-06T00:24:03.276Z,10.90
2023-03-06T00:24:14.005Z,10.70
2023-03-06T00:24:26.545Z,10.30
2023-03-06T00:24:37.265Z,10.80
2023-03-06T00:24:49.884Z,10.40
2023-03-06T00:25:00.631Z,10.10
2023-03-06T00:25:11.386Z,10.00
2023-03-06T00:25:22.222Z,10.30
2023-03-06T00:25:33.940Z,10.20
2023-03-06T00:25:46.162Z,10.40
2023-03-06T00:25:56.928Z,10.70
2023-03-06T00:26:09.144Z,10.90
2023-03-06T00:26:19.875Z,10.80
2023-03-06T00:26:30.624Z,10.30
2023-03-06T00:26:45.370Z,10.70
2023-03-06T00:26:58.598Z,11.40
2023-03-06T00:27:11.810Z,11.00
2023-03-06T00:27:22.605Z,10.60
2023-03-06T00:27:34.324Z,10.20
2023-03-06T00:27:46.556Z,10.50
2023-03-06T00:27:58.424Z,10.80
2023-03-06T00:28:11.294Z,10.50
2023-03-06T00:28:22.277Z,10.50
2023-03-06T00:28:34.768Z,10.30
2023-03-06T00:28:47.756Z,10.10
2023-03-06T00:28:58.531Z,10.30
2023-03-06T00:29:10.955Z,9.70
2023-03-06T00:29:22.703Z,9.80
2023-03-06T00:29:33.472Z,10.30
2023-03-06T00:29:45.182Z,10.40
2023-03-06T00:29:56.973Z,10.30
2023-03-06T00:30:08.738Z,9.80
2023-03-06T00:30:19.515Z,10.20
2023-03-06T00:30:30.294Z,10.40
2023-03-06T00:30:41.325Z,10.70
2023-03-06T00:30:53.299Z,10.30
2023-03-06T00:31:05.902Z,10.30
2023-03-06T00:31:17.697Z,10.30
2023-03-06T00:31:29.390Z,10.80
2023-03-06T00:31:40.228Z,10.70
2023-03-06T00:31:53.134Z,10.00
2023-03-06T00:32:06.389Z,10.10
2023-03-06T00:32:17.168Z,10.90
2023-03-06T00:32:28.993Z,11.20
2023-03-06T00:32:40.492Z,11.20
2023-03-06T00:32:52.226Z,11.10
2023-03-06T00:33:05.465Z,11.20
2023-03-06T00:33:17.241Z,11.50
2023-03-06T00:33:29.709Z,10.40
2023-03-06T00:33:40.437Z,10.60
2023-03-06T00:33:52.685Z,10.50
2023-03-06T00:34:03.402Z,10.80
2023-03-06T00:34:15.126Z,11.40
2023-03-06T00:34:25.904Z,11.70
2023-03-06T00:34:37.617Z,11.30
2023-03-06T00:34:49.377Z,10.80
2023-03-06T00:35:02.352Z,10.00
2023-03-06T00:35:14.815Z,11.40
2023-03-06T00:35:26.569Z,12.10
2023-03-06T00:35:38.347Z,12.10
2023-03-06T00:35:50.284Z,12.20
2023-03-06T00:36:01.123Z,12.30
2023-03-06T00:36:11.865Z,12.20
2023-03-06T00:36:23.677Z,11.20
2023-03-06T00:36:36.367Z,10.40
2023-03-06T00:36:48.835Z,10.60
2023-03-06T00:37:01.799Z,11.00
2023-03-06T00:37:12.589Z,11.10
2023-03-06T00:37:25.066Z,11.40
2023-03-06T00:37:36.773Z,11.40
2023-03-06T00:37:48.516Z,10.70
2023-03-06T00:37:59.255Z,10.50
2023-03-06T00:38:10.979Z,11.10
2023-03-06T00:38:24.180Z,11.10
2023-03-06T00:38:34.920Z,10.70
2023-03-06T00:38:46.685Z,11.40
2023-03-06T00:38:58.386Z,11.70
2023-03-06T00:39:11.621Z,10.90
2023-03-06T00:39:22.375Z,9.60
2023-03-06T00:39:34.825Z,9.80
2023-03-06T00:39:46.552Z,10.40
2023-03-06T00:39:58.309Z,10.90
2023-03-06T00:40:09.069Z,10.50
2023-03-06T00:40:22.268Z,10.00
2023-03-06T00:40:34.060Z,10.00
2023-03-06T00:40:44.852Z,10.30
2023-03-06T00:40:55.612Z,10.50
2023-03-06T00:41:08.078Z,11.00
2023-03-06T00:41:20.074Z,10.20
2023-03-06T00:41:32.489Z,10.20
2023-03-06T00:41:46.939Z,10.50
2023-03-06T00:41:59.975Z,10.50
2023-03-06T00:42:12.425Z,10.80
2023-03-06T00:42:23.187Z,11.30
2023-03-06T00:42:33.973Z,11.60
2023-03-06T00:42:44.785Z,11.20
2023-03-06T00:42:55.503Z,10.90
2023-03-06T00:43:07.254Z,11.10
2023-03-06T00:43:19.018Z,11.40
2023-03-06T00:43:31.945Z,10.20
2023-03-06T00:43:44.397Z,10.60
2023-03-06T00:43:56.136Z,11.60
2023-03-06T00:44:06.915Z,12.50
2023-03-06T00:44:19.145Z,12.00
2023-03-06T00:44:31.147Z,11.20
2023-03-06T00:44:44.380Z,10.50
2023-03-06T00:44:55.116Z,10.90
2023-03-06T00:45:06.836Z,10.60
2023-03-06T00:45:18.622Z,10.50
2023-03-06T00:45:30.615Z,10.30
2023-03-06T00:45:41.393Z,10.60
2023-03-06T00:45:53.207Z,11.40
2023-03-06T00:46:05.046Z,11.80
2023-03-06T00:46:15.795Z,11.20
2023-03-06T00:46:27.586Z,11.00
2023-03-06T00:46:41.289Z,10.70
2023-03-06T00:46:53.993Z,11.00
2023-03-06T00:47:06.216Z,11.80
2023-03-06T00:47:17.989Z,11.90
2023-03-06T00:47:30.447Z,11.30
2023-03-06T00:47:41.192Z,11.40
2023-03-06T00:47:53.417Z,11.30
2023-03-06T00:48:05.630Z,10.60
2023-03-06T00:48:16.404Z,10.30
2023-03-06T00:48:27.180Z,10.40
2023-03-06T00:48:39.396Z,10.40
2023-03-06T00:48:51.820Z,10.60
2023-03-06T00:49:02.594Z,11.70
2023-03-06T00:49:13.336Z,12.10
2023-03-06T00:49:25.044Z,12.50
2023-03-06T00:49:37.284Z,11.30
2023-03-06T00:49:48.207Z,11.50
2023-03-06T00:49:58.982Z,11.90
2023-03-06T00:50:10.962Z,11.40
2023-03-06T00:50:21.718Z,11.60
2023-03-06T00:50:34.159Z,11.20
2023-03-06T00:50:44.948Z,11.30
2023-03-06T00:50:55.702Z,11.40
2023-03-06T00:51:07.535Z,10.90
2023-03-06T00:51:20.753Z,11.90
2023-03-06T00:51:32.714Z,11.80
2023-03-06T00:51:47.470Z,11.30
2023-03-06T00:51:58.216Z,11.50
2023-03-06T00:52:08.994Z,11.30
2023-03-06T00:52:21.457Z,11.00
2023-03-06T00:52:32.469Z,11.80
2023-03-06T00:52:43.257Z,11.90
2023-03-06T00:52:54.010Z,12.10
2023-03-06T00:53:07.015Z,11.80
2023-03-06T00:53:17.796Z,11.20
2023-03-06T00:53:30.195Z,11.30
2023-03-06T00:53:41.918Z,11.20
2023-03-06T00:53:52.690Z,11.80
2023-03-06T00:54:04.405Z,11.20
2023-03-06T00:54:15.160Z,11.30
2023-03-06T00:54:26.922Z,11.70
2023-03-06T00:54:37.666Z,11.90
2023-03-06T00:54:49.378Z,11.80
2023-03-06T00:55:01.613Z,11.40
2023-03-06T00:55:14.544Z,11.70
2023-03-06T00:55:27.021Z,11.70
2023-03-06T00:55:38.824Z,11.90
2023-03-06T00:55:50.555Z,11.90
2023-03-06T00:56:01.298Z,11.80
2023-03-06T00:56:13.028Z,11.60
2023-03-06T00:56:26.555Z,12.10
2023-03-06T00:56:39.079Z,12.20
2023-03-06T00:56:49.848Z,11.70
2023-03-06T00:57:00.635Z,11.60
2023-03-06T00:57:13.350Z,12.00
2023-03-06T00:57:25.029Z,12.00
2023-03-06T00:57:37.759Z,12.30
2023-03-06T00:57:50.469Z,12.20
2023-03-06T00:58:01.282Z,11.20
2023-03-06T00:58:13.031Z,10.80
2023-03-06T00:58:24.758Z,11.20
2023-03-06T00:58:37.242Z,11.30
2023-03-06T00:58:47.971Z,11.70
2023-03-06T00:58:58.748Z,11.80
2023-03-06T00:59:09.489Z,12.00
2023-03-06T00:59:20.271Z,11.30
2023-03-06T00:59:31.292Z,11.30
2023-03-06T00:59:43.518Z,11.10
2023-03-06T00:59:55.296Z,11.10
2023-03-06T01:00:07.724Z,11.30
2023-03-06T01:00:19.668Z,11.00
2023-03-06T01:00:31.408Z,11.30
2023-03-06T01:00:42.273Z,11.60
2023-03-06T01:00:53.163Z,12.10
2023-03-06T01:01:04.978Z,11.90
2023-03-06T01:01:17.769Z,12.00
2023-03-06T01:01:28.623Z,11.40
2023-03-06T01:01:39.431Z,10.80
2023-03-06T01:01:51.226Z,10.90
2023-03-06T01:02:02.051Z,11.30
2023-03-06T01:02:14.618Z,11.50
2023-03-06T01:02:25.477Z,11.00
2023-03-06T01:02:37.728Z,10.90
2023-03-06T01:02:49.459Z,10.80
2023-03-06T01:03:00.232Z,11.30
2023-03-06T01:03:11.957Z,12.40
2023-03-06T01:03:22.740Z,13.20
2023-03-06T01:03:33.532Z,12.50
2023-03-06T01:03:45.278Z,11.20
2023-03-06T01:03:57.051Z,11.10
2023-03-06T01:04:08.770Z,11.80
2023-03-06T01:04:19.528Z,11.90
2023-03-06T01:04:30.403Z,11.50
2023-03-06T01:04:41.189Z,11.20
2023-03-06T01:04:52.954Z,11.10
2023-03-06T01:05:04.712Z,11.10
2023-03-06T01:05:15.510Z,12.20
2023-03-06T01:05:26.277Z,12.20
2023-03-06T01:05:37.178Z,11.70
2023-03-06T01:05:48.030Z,11.50
2023-03-06T01:05:58.846Z,11.50
2023-03-06T01:06:11.368Z,12.10
2023-03-06T01:06:23.878Z,11.70
2023-03-06T01:06:36.039Z,11.30
2023-03-06T01:06:48.620Z,11.20
2023-03-06T01:06:59.450Z,10.80
2023-03-06T01:07:11.158Z,10.50
2023-03-06T01:07:21.890Z,10.60
2023-03-06T01:07:32.720Z,11.50
2023-03-06T01:07:43.543Z,11.60
2023-03-06T01:07:55.364Z,11.40
2023-03-06T01:08:07.107Z,11.10
2023-03-06T01:08:19.337Z,11.00
2023-03-06T01:08:30.120Z,10.90
2023-03-06T01:08:40.949Z,10.70
2023-03-06T01:08:52.730Z,10.80
2023-03-06T01:09:05.214Z,11.30
2023-03-06T01:09:15.974Z,10.50
2023-03-06T01:09:28.456Z,10.90
2023-03-06T01:09:40.673Z,11.50
2023-03-06T01:09:52.876Z,11.20
2023-03-06T01:10:03.636Z,11.00
2023-03-06T01:10:15.888Z,11.10
2023-03-06T01:10:27.605Z,11.30
2023-03-06T01:10:40.048Z,11.20
2023-03-06T01:10:50.778Z,11.50
2023-03-06T01:11:03.297Z,11.30
2023-03-06T01:11:14.067Z,11.70
2023-03-06T01:11:26.297Z,11.70
2023-03-06T01:11:37.058Z,11.30
2023-03-06T01:11:47.889Z,11.50
2023-03-06T01:12:00.135Z,11.20
2023-03-06T01:12:10.928Z,11.60
2023-03-06T01:12:23.643Z,12.60
2023-03-06T01:12:35.443Z,12.20
2023-03-06T01:12:46.208Z,11.20
2023-03-06T01:12:58.936Z,11.30
2023-03-06T01:13:10.705Z,11.50
2023-03-06T01:13:21.487Z,11.20
2023-03-06T01:13:32.281Z,11.40
2023-03-06T01:13:43.058Z,11.20
2023-03-06T01:13:54.785Z,10.80
2023-03-06T01:14:07.209Z,11.20
2023-03-06T01:14:20.205Z,11.10
2023-03-06T01:14:32.435Z,11.20
2023-03-06T01:14:43.217Z,11.80
2023-03-06T01:14:55.475Z,12.00
2023-03-06T01:15:07.955Z,11.70
2023-03-06T01:15:20.430Z,10.80
2023-03-06T01:15:33.145Z,10.90
2023-03-06T01:15:43.926Z,10.90
2023-03-06T01:15:54.820Z,11.20
2023-03-06T01:16:05.649Z,11.40
2023-03-06T01:16:18.128Z,11.40
2023-03-06T01:16:28.957Z,10.50
2023-03-06T01:16:40.256Z,10.30
2023-03-06T01:16:51.099Z,10.80
2023-03-06T01:17:02.181Z,11.20
2023-03-06T01:17:12.989Z,11.80
2023-03-06T01:17:25.447Z,11.40
2023-03-06T01:17:37.900Z,11.20
2023-03-06T01:17:49.643Z,11.40
2023-03-06T01:18:02.088Z,11.10
2023-03-06T01:18:13.883Z,11.20
2023-03-06T01:18:25.692Z,11.70
2023-03-06T01:18:37.914Z,11.70
2023-03-06T01:18:49.661Z,11.70
2023-03-06T01:19:01.889Z,11.80
2023-03-06T01:19:12.716Z,12.00
2023-03-06T01:19:23.481Z,11.40
2023-03-06T01:19:35.218Z,11.50
2023-03-06T01:19:46.898Z,11.30
2023-03-06T01:19:57.658Z,11.80
2023-03-06T01:20:09.378Z,11.80
2023-03-06T01:20:20.138Z,12.30
2023-03-06T01:20:32.370Z,11.90
2023-03-06T01:20:43.119Z,11.40
2023-03-06T01:20:53.899Z,11.30
2023-03-06T01:21:05.625Z,10.80
2023-03-06T01:21:16.382Z,10.80
2023-03-06T01:21:28.119Z,11.10
2023-03-06T01:21:39.877Z,10.60
2023-03-06T01:21:53.118Z,10.80
2023-03-06T01:22:03.858Z,11.20
2023-03-06T01:22:14.640Z,11.60
2023-03-06T01:22:26.358Z,11.70
2023-03-06T01:22:39.599Z,11.60
2023-03-06T01:22:50.388Z,11.40
2023-03-06T01:23:01.158Z,11.20
2023-03-06T01:23:13.965Z,11.70
2023-03-06T01:23:24.738Z,12.70
2023-03-06T01:23:35.479Z,12.70
2023-03-06T01:23:46.288Z,12.50
2023-03-06T01:23:57.062Z,11.90
2023-03-06T01:24:07.829Z,11.70
2023-03-06T01:24:18.604Z,11.70
2023-03-06T01:24:31.828Z,11.30
2023-03-06T01:24:43.636Z,10.70
2023-03-06T01:24:54.475Z,11.20
2023-03-06T01:25:06.252Z,12.00
2023-03-06T01:25:18.069Z,11.60
2023-03-06T01:25:31.297Z,12.50
2023-03-06T01:25:45.012Z,12.70
2023-03-06T01:25:57.478Z,12.40
2023-03-06T01:26:09.959Z,11.80
2023-03-06T01:26:22.408Z,11.20
2023-03-06T01:26:34.188Z,11.20
2023-03-06T01:26:44.998Z,11.10
2023-03-06T01:26:56.822Z,11.50
2023-03-06T01:27:08.871Z,10.90
2023-03-06T01:27:20.649Z,11.10
2023-03-06T01:27:33.370Z,11.20
2023-03-06T01:27:45.601Z,12.10
2023-03-06T01:27:57.589Z,11.50
2023-03-06T01:28:10.030Z,11.80
2023-03-06T01:28:22.499Z,11.70
2023-03-06T01:28:34.256Z,10.80
2023-03-06T01:28:46.501Z,10.80
2023-03-06T01:28:58.489Z,11.30
2023-03-06T01:29:10.228Z,11.10
2023-03-06T01:29:21.984Z,11.40
2023-03-06T01:29:33.720Z,10.90
2023-03-06T01:29:45.488Z,11.20
2023-03-06T01:29:56.228Z,11.60
2023-03-06T01:30:08.679Z,11.70
2023-03-06T01:30:19.459Z,11.60
2023-03-06T01:30:30.218Z,11.20
2023-03-06T01:30:42.463Z,11.10
2023-03-06T01:30:55.433Z,11.40
2023-03-06T01:31:07.428Z,11.80
2023-03-06T01:31:18.217Z,11.90
2023-03-06T01:31:30.079Z,11.50
2023-03-06T01:31:42.799Z,10.80
2023-03-06T01:31:54.653Z,11.20
2023-03-06T01:32:05.628Z,11.20
2023-03-06T01:32:17.455Z,11.80
2023-03-06T01:32:28.307Z,11.50
2023-03-06T01:32:40.525Z,11.40
2023-03-06T01:32:51.312Z,12.40
2023-03-06T01:33:03.283Z,12.50
2023-03-06T01:33:15.737Z,12.20
2023-03-06T01:33:26.509Z,12.00
2023-03-06T01:33:38.232Z,12.20
2023-03-06T01:33:50.006Z,12.10
2023-03-06T01:34:01.703Z,11.70
2023-03-06T01:34:12.499Z,11.60
2023-03-06T01:34:23.258Z,11.10
2023-03-06T01:34:33.993Z,11.00
2023-03-06T01:34:47.145Z,11.10
2023-03-06T01:35:00.870Z,11.20
2023-03-06T01:35:12.626Z,10.80
2023-03-06T01:35:24.455Z,11.00
2023-03-06T01:35:35.314Z,10.90
2023-03-06T01:35:47.872Z,11.40
2023-03-06T01:35:59.603Z,12.20
2023-03-06T01:36:12.074Z,11.40
2023-03-06T01:36:24.590Z,10.90
2023-03-06T01:36:35.423Z,10.80
2023-03-06T01:36:46.247Z,10.60
2023-03-06T01:36:57.030Z,11.00
2023-03-06T01:37:09.482Z,11.50
2023-03-06T01:37:21.235Z,11.90
2023-03-06T01:37:33.061Z,11.60
2023-03-06T01:37:43.961Z,11.70
2023-03-06T01:37:55.441Z,11.60
2023-03-06T01:38:08.221Z,11.40
2023-03-06T01:38:21.466Z,11.40
2023-03-06T01:38:33.202Z,11.40
2023-03-06T01:38:43.951Z,12.00
2023-03-06T01:38:54.729Z,11.80
2023-03-06T01:39:05.523Z,11.70
2023-03-06T01:39:18.029Z,11.80
2023-03-06T01:39:29.756Z,11.60
2023-03-06T01:39:40.543Z,12.20
2023-03-06T01:39:51.326Z,12.10
2023-03-06T01:40:02.142Z,12.00
2023-03-06T01:40:14.381Z,11.60
2023-03-06T01:40:26.140Z,11.50
2023-03-06T01:40:36.884Z,11.80
2023-03-06T01:40:49.374Z,11.80
2023-03-06T01:41:01.063Z,11.80
2023-03-06T01:41:11.803Z,11.70
2023-03-06T01:41:23.557Z,11.60
2023-03-06T01:41:35.286Z,12.20
2023-03-06T01:41:46.047Z,11.90
2023-03-06T01:41:56.874Z,10.80
2023-03-06T01:42:10.287Z,10.90
2023-03-06T01:42:22.510Z,11.20
2023-03-06T01:42:34.756Z,11.60
2023-03-06T01:42:46.922Z,12.50
2023-03-06T01:42:57.685Z,12.30
2023-03-06T01:43:08.476Z,12.30
2023-03-06T01:43:20.696Z,11.70
2023-03-06T01:43:32.443Z,11.20
2023-03-06T01:43:44.173Z,11.80
2023-03-06T01:43:56.020Z,11.50
2023-03-06T01:44:06.746Z,11.50
2023-03-06T01:44:17.537Z,11.70
2023-03-06T01:44:29.259Z,11.80
2023-03-06T01:44:40.017Z,11.80
2023-03-06T01:44:50.805Z,11.10
2023-03-06T01:45:01.562Z,11.00
2023-03-06T01:45:12.346Z,10.90
2023-03-06T01:45:25.056Z,10.20
2023-03-06T01:45:36.825Z,10.80
2023-03-06T01:45:49.064Z,11.00
2023-03-06T01:46:01.340Z,11.00
2023-03-06T01:46:12.138Z,10.70
2023-03-06T01:46:25.884Z,11.10
2023-03-06T01:46:37.867Z,11.70
2023-03-06T01:46:50.350Z,11.90
2023-03-06T01:47:02.864Z,12.60
2023-03-06T01:47:13.602Z,12.80
2023-03-06T01:47:26.801Z,12.30
2023-03-06T01:47:38.580Z,12.30
2023-03-06T01:47:51.841Z,12.00
2023-03-06T01:48:03.612Z,11.40
2023-03-06T01:48:16.150Z,11.70
2023-03-06T01:48:29.366Z,11.40
2023-03-06T01:48:41.190Z,11.10
2023-03-06T01:48:51.936Z,11.60
2023-03-06T01:49:06.199Z,12.30
2023-03-06T01:49:16.939Z,12.00
2023-03-06T01:49:27.708Z,11.40
2023-03-06T01:49:40.201Z,12.40
2023-03-06T01:49:52.684Z,13.00
2023-03-06T01:50:04.408Z,11.80
2023-03-06T01:50:16.909Z,11.20
2023-03-06T01:50:29.417Z,10.80
2023-03-06T01:50:42.648Z,11.60
2023-03-06T01:50:55.838Z,11.60
2023-03-06T01:51:09.047Z,10.80
2023-03-06T01:51:21.533Z,10.50
2023-03-06T01:51:32.262Z,10.80
2023-03-06T01:51:43.992Z,11.10
2023-03-06T01:51:55.754Z,10.60
2023-03-06T01:52:07.511Z,11.20
2023-03-06T01:52:19.229Z,11.10
2023-03-06T01:52:31.692Z,10.80
2023-03-06T01:52:44.927Z,11.00
2023-03-06T01:52:58.166Z,11.50
2023-03-06T01:53:09.177Z,11.20
2023-03-06T01:53:20.942Z,10.80
2023-03-06T01:53:31.714Z,10.60
2023-03-06T01:53:43.468Z,11.60
2023-03-06T01:53:54.328Z,12.50
2023-03-06T01:54:06.027Z,12.30
2023-03-06T01:54:17.760Z,11.70
2023-03-06T01:54:30.233Z,12.50
2023-03-06T01:54:41.000Z,12.20
2023-03-06T01:54:53.737Z,12.50
2023-03-06T01:55:04.507Z,11.70
2023-03-06T01:55:16.711Z,11.20
2023-03-06T01:55:29.258Z,10.70
2023-03-06T01:55:42.478Z,11.10
2023-03-06T01:55:53.260Z,11.60
2023-03-06T01:56:04.024Z,12.70
2023-03-06T01:56:15.830Z,12.90
2023-03-06T01:56:27.783Z,12.50
2023-03-06T01:56:40.260Z,12.50
2023-03-06T01:56:52.035Z,12.30
2023-03-06T01:57:02.803Z,11.70
2023-03-06T01:57:14.542Z,11.50
2023-03-06T01:57:27.021Z,11.70
2023-03-06T01:57:39.462Z,11.90
2023-03-06T01:57:51.719Z,11.70
2023-03-06T01:58:02.480Z,11.40
2023-03-06T01:58:14.980Z,11.20
2023-03-06T01:58:25.878Z,11.60
2023-03-06T01:58:38.122Z,11.50
2023-03-06T01:58:48.903Z,12.00
2023-03-06T01:58:59.689Z,11.70
2023-03-06T01:59:11.646Z,11.50
2023-03-06T01:59:23.427Z,12.30
2023-03-06T01:59:34.232Z,12.50
2023-03-06T01:59:46.022Z,12.90
2023-03-06T01:59:58.242Z,11.60
2023-03-06T02:00:10.772Z,11.80
2023-03-06T02:00:22.499Z,11.90
2023-03-06T02:00:33.453Z,11.30
2023-03-06T02:00:45.229Z,11.30
2023-03-06T02:00:58.411Z,11.70
2023-03-06T02:01:09.261Z,12.50
2023-03-06T02:01:20.090Z,12.70
2023-03-06T02:01:30.921Z,12.20
2023-03-06T02:01:42.723Z,11.60
2023-03-06T02:01:53.462Z,11.90
2023-03-06T02:02:05.689Z,11.80
2023-03-06T02:02:16.527Z,11.40
2023-03-06T02:02:27.328Z,11.80
2023-03-06T02:02:38.265Z,12.10
2023-03-06T02:02:51.305Z,12.50
2023-03-06T02:03:02.121Z,12.60
2023-03-06T02:03:15.291Z,12.30
2023-03-06T02:03:27.043Z,12.30
2023-03-06T02:03:39.529Z,12.10
2023-03-06T02:03:52.486Z,11.70
2023-03-06T02:04:04.274Z,12.10
2023-03-06T02:04:16.451Z,12.70
2023-03-06T02:04:28.182Z,12.10
2023-03-06T02:04:40.655Z,11.70
2023-03-06T02:04:51.451Z,11.90
2023-03-06T02:05:03.989Z,12.80
2023-03-06T02:05:14.772Z,13.30
2023-03-06T02:05:25.564Z,13.10
2023-03-06T02:05:36.332Z,12.10
2023-03-06T02:05:48.815Z,11.80
2023-03-06T02:06:01.771Z,12.60
2023-03-06T02:06:12.526Z,12.20
2023-03-06T02:06:24.274Z,12.80
2023-03-06T02:06:36.025Z,12.50
2023-03-06T02:06:48.767Z,12.00
2023-03-06T02:06:59.541Z,11.40
2023-03-06T02:07:13.300Z,11.70
2023-03-06T02:07:25.003Z,12.30
2023-03-06T02:07:35.854Z,12.40
2023-03-06T02:07:48.299Z,12.40
2023-03-06T02:08:00.051Z,11.60
2023-03-06T02:08:10.817Z,11.60
2023-03-06T02:08:22.493Z,11.60
2023-03-06T02:08:34.956Z,12.20
2023-03-06T02:08:45.733Z,12.30
2023-03-06T02:08:57.482Z,12.90
2023-03-06T02:09:09.924Z,11.50
2023-03-06T02:09:22.373Z,11.60
2023-03-06T02:09:35.355Z,12.10
2023-03-06T02:09:47.822Z,11.70
2023-03-06T02:10:00.265Z,11.90
2023-03-06T02:10:12.012Z,12.20
2023-03-06T02:10:22.788Z,12.30
2023-03-06T02:10:34.515Z,11.80
2023-03-06T02:10:47.273Z,13.00
2023-03-06T02:10:58.065Z,13.20
2023-03-06T02:11:10.444Z,11.90
2023-03-06T02:11:21.291Z,12.10
2023-03-06T02:11:33.054Z,12.10
2023-03-06T02:11:45.290Z,12.30
2023-03-06T02:11:57.255Z,11.50
2023-03-06T02:12:09.671Z,10.80
2023-03-06T02:12:20.426Z,10.80
2023-03-06T02:12:32.875Z,11.20
2023-03-06T02:12:45.160Z,11.50
2023-03-06T02:12:57.404Z,11.50
2023-03-06T02:13:11.164Z,11.30
2023-03-06T02:13:22.941Z,11.50
2023-03-06T02:13:35.407Z,11.90
2023-03-06T02:13:46.159Z,12.20
2023-03-06T02:13:57.929Z,12.00
2023-03-06T02:14:10.383Z,12.00
2023-03-06T02:14:22.121Z,12.20
2023-03-06T02:14:34.567Z,12.80
2023-03-06T02:14:46.305Z,12.50
2023-03-06T02:14:57.046Z,12.40
2023-03-06T02:15:09.563Z,11.90
2023-03-06T02:15:21.266Z,12.30
2023-03-06T02:15:32.994Z,12.10
2023-03-06T02:15:45.280Z,12.00
2023-03-06T02:15:57.004Z,11.90
2023-03-06T02:16:08.985Z,11.50
2023-03-06T02:16:21.248Z,11.90
2023-03-06T02:16:32.047Z,12.30
2023-03-06T02:16:42.844Z,11.90
2023-03-06T02:16:53.699Z,11.80
2023-03-06T02:17:06.415Z,11.60
2023-03-06T02:17:18.386Z,11.40
2023-03-06T02:17:30.177Z,11.70
2023-03-06T02:17:40.957Z,12.30
2023-03-06T02:17:52.736Z,12.00
2023-03-06T02:18:04.476Z,11.80
2023-03-06T02:18:16.987Z,11.10
2023-03-06T02:18:29.196Z,12.00
2023-03-06T02:18:40.955Z,12.00
2023-03-06T02:18:52.635Z,11.80
2023-03-06T02:19:04.373Z,12.40
2023-03-06T02:19:16.102Z,12.70
2023-03-06T02:19:27.878Z,12.80
2023-03-06T02:19:40.596Z,12.60
2023-03-06T02:19:52.836Z,11.80
2023-03-06T02:20:05.340Z,11.90
2023-03-06T02:20:18.019Z,11.90
2023-03-06T02:20:29.812Z,11.80
2023-03-06T02:20:43.617Z,12.40
2023-03-06T02:20:56.110Z,11.90
2023-03-06T02:21:07.827Z,12.20
2023-03-06T02:21:18.607Z,11.90
2023-03-06T02:21:30.335Z,12.40
2023-03-06T02:21:42.078Z,12.50
2023-03-06T02:21:52.868Z,12.20
2023-03-06T02:22:03.597Z,11.90
2023-03-06T02:22:14.366Z,11.90
2023-03-06T02:22:25.129Z,12.40
2023-03-06T02:22:36.859Z,12.70
2023-03-06T02:22:47.593Z,12.00
2023-03-06T02:22:58.329Z,11.30
2023-03-06T02:23:10.037Z,11.10
2023-03-06T02:23:21.763Z,11.80
2023-03-06T02:23:32.546Z,13.00
2023-03-06T02:23:44.319Z,13.00
2023-03-06T02:23:57.537Z,11.70
2023-03-06T02:24:09.286Z,12.10
2023-03-06T02:24:20.048Z,12.80
2023-03-06T02:24:32.520Z,12.90
2023-03-06T02:24:44.263Z,12.50
2023-03-06T02:24:56.493Z,12.00
2023-03-06T02:25:08.251Z,12.30
2023-03-06T02:25:19.017Z,13.10
2023-03-06T02:25:30.766Z,12.80
2023-03-06T02:25:41.518Z,12.90
2023-03-06T02:25:52.319Z,12.50
2023-03-06T02:26:04.120Z,13.30
2023-03-06T02:26:16.100Z,13.00
2023-03-06T02:26:26.892Z,12.70
2023-03-06T02:26:37.678Z,12.60
2023-03-06T02:26:49.944Z,12.50
2023-03-06T02:27:01.682Z,12.60
2023-03-06T02:27:12.445Z,13.00
2023-03-06T02:27:24.132Z,12.20
2023-03-06T02:27:35.842Z,12.20
2023-03-06T02:27:47.594Z,12.70
2023-03-06T02:27:59.839Z,12.70
2023-03-06T02:28:12.356Z,13.50
2023-03-06T02:28:24.811Z,13.10
2023-03-06T02:28:36.810Z,11.80
2023-03-06T02:28:47.626Z,11.30
2023-03-06T02:28:59.840Z,11.30
2023-03-06T02:29:10.607Z,11.10
2023-03-06T02:29:21.378Z,11.70
2023-03-06T02:29:33.849Z,11.70
2023-03-06T02:29:44.629Z,12.30
2023-03-06T02:29:56.402Z,12.10
2023-03-06T02:30:08.121Z,12.40
2023-03-06T02:30:18.967Z,12.00
2023-03-06T02:30:30.732Z,11.90
2023-03-06T02:30:44.024Z,11.30
2023-03-06T02:30:55.763Z,11.50
2023-03-06T02:31:08.089Z,11.20
2023-03-06T02:31:18.943Z,11.70
2023-03-06T02:31:30.688Z,12.40
2023-03-06T02:31:42.929Z,12.80
2023-03-06T02:31:54.641Z,12.30
2023-03-06T02:32:05.521Z,12.00